Terminal Aerodrome Forecast
Issued by NWS Corpus Christi, TX

Current Version | Previous Version | Text Only | Print | Product List | Glossary Off
Versions: 1 2 3 4 5 6 7 8 9 10 11 12 13 14 15 16 17 18

143
FTUS44 KCRP 270520
TAFVCT
TAF
KVCT 270520Z 2706/2806 03013KT P6SM SKC
     FM271400 08011KT P6SM SKC
     FM271900 14013KT P6SM FEW050
     FM280300 15010KT P6SM SCT018=

USA.gov is the U.S. government's official web portal to all federal, state and local government web resources and services.